createdAt,value
2024-01-19T00:00:26.591Z,66.86
2024-01-19T00:03:13.872Z,66.92
2024-01-19T00:06:01.254Z,66.73
2024-01-19T00:08:48.712Z,66.95
2024-01-19T00:11:37.372Z,66.76
2024-01-19T00:14:24.939Z,66.58
2024-01-19T00:17:12.136Z,66.20
2024-01-19T00:20:00.514Z,65.64
2024-01-19T00:22:48.145Z,65.94
2024-01-19T00:25:35.400Z,65.95
2024-01-19T00:28:22.594Z,66.27
2024-01-19T00:31:09.961Z,66.21
2024-01-19T00:33:57.751Z,66.39
2024-01-19T00:36:45.331Z,66.02
2024-01-19T00:39:33.614Z,66.21
2024-01-19T00:42:20.822Z,66.02
2024-01-19T00:45:12.951Z,66.19
2024-01-19T00:48:00.293Z,66.32
2024-01-19T00:50:47.591Z,66.80
2024-01-19T00:53:34.871Z,66.93
2024-01-19T00:56:23.240Z,67.12
2024-01-19T00:59:10.610Z,66.81
2024-01-19T01:01:57.814Z,66.29
2024-01-19T01:04:44.984Z,66.37
2024-01-19T01:07:32.184Z,65.93
2024-01-19T01:10:19.597Z,65.87
2024-01-19T01:13:06.999Z,65.70
2024-01-19T01:15:55.731Z,65.61
2024-01-19T01:18:43.100Z,65.99
2024-01-19T01:21:31.653Z,65.68
2024-01-19T01:24:20.383Z,65.61
2024-01-19T01:27:07.681Z,65.04
2024-01-19T01:29:55.452Z,65.36
2024-01-19T01:32:42.943Z,65.71
2024-01-19T01:35:30.483Z,65.43
2024-01-19T01:38:17.821Z,65.96
2024-01-19T01:41:05.194Z,65.99
2024-01-19T01:43:52.602Z,65.69
2024-01-19T01:46:39.924Z,65.44
2024-01-19T01:49:27.677Z,64.72
2024-01-19T01:52:15.085Z,64.95
2024-01-19T01:55:02.537Z,65.31
2024-01-19T01:57:49.989Z,65.36
2024-01-19T02:00:38.594Z,65.27
2024-01-19T02:03:27.274Z,65.26
2024-01-19T02:06:15.810Z,65.33
2024-01-19T02:09:03.525Z,65.54
2024-01-19T02:11:51.341Z,65.58
2024-01-19T02:14:38.710Z,65.63
2024-01-19T02:17:27.748Z,65.88
2024-01-19T02:20:15.628Z,65.67
2024-01-19T02:23:06.049Z,66.16
2024-01-19T02:25:55.237Z,66.86
2024-01-19T02:28:42.667Z,66.79
2024-01-19T02:31:29.909Z,67.28
2024-01-19T02:34:16.976Z,67.42
2024-01-19T02:37:05.420Z,67.48
2024-01-19T02:39:52.626Z,67.56
2024-01-19T02:42:39.944Z,67.26
2024-01-19T02:45:27.092Z,67.58
2024-01-19T02:48:14.474Z,68.00
2024-01-19T02:51:01.821Z,67.86
2024-01-19T02:53:49.171Z,67.92
2024-01-19T02:56:36.495Z,67.92
2024-01-19T02:59:23.877Z,68.35
2024-01-19T03:02:11.104Z,68.29
2024-01-19T03:04:58.383Z,68.67
2024-01-19T03:07:45.644Z,68.40
2024-01-19T03:10:32.942Z,68.43
2024-01-19T03:13:20.094Z,68.29
2024-01-19T03:16:08.273Z,68.95
2024-01-19T03:18:56.399Z,69.03
2024-01-19T03:21:45.116Z,69.00
2024-01-19T03:24:32.277Z,69.55
2024-01-19T03:27:19.483Z,69.50
2024-01-19T03:30:07.375Z,69.04
2024-01-19T03:32:54.612Z,69.13
2024-01-19T03:35:41.844Z,68.80
2024-01-19T03:38:30.678Z,68.97
2024-01-19T03:41:18.100Z,68.81
2024-01-19T03:44:05.478Z,68.92
2024-01-19T03:46:53.088Z,68.90
2024-01-19T03:49:41.273Z,69.21
2024-01-19T03:52:28.636Z,69.65
2024-01-19T03:55:18.985Z,69.91
2024-01-19T03:58:06.634Z,70.65
2024-01-19T04:00:53.788Z,70.62
2024-01-19T04:03:41.266Z,70.73
2024-01-19T04:06:28.594Z,71.39
2024-01-19T04:09:18.794Z,71.59
2024-01-19T04:12:17.479Z,71.50
2024-01-19T04:15:05.508Z,71.19
2024-01-19T04:17:53.504Z,71.09
2024-01-19T04:20:40.720Z,71.24
2024-01-19T04:23:27.917Z,71.10
2024-01-19T04:26:15.176Z,70.89
2024-01-19T04:29:03.146Z,70.90
2024-01-19T04:31:50.970Z,70.59
2024-01-19T04:34:38.179Z,71.08
2024-01-19T04:37:25.440Z,71.14
2024-01-19T04:40:12.763Z,70.95
2024-01-19T04:42:59.926Z,70.84
2024-01-19T04:45:47.187Z,70.81
2024-01-19T04:48:34.611Z,70.66
2024-01-19T04:51:21.955Z,70.69
2024-01-19T04:54:09.282Z,70.39
2024-01-19T04:56:56.587Z,70.65
2024-01-19T04:59:43.865Z,70.44
2024-01-19T05:02:34.136Z,70.38
2024-01-19T05:05:21.760Z,70.45
2024-01-19T05:08:09.068Z,70.27
2024-01-19T05:10:56.345Z,70.35
2024-01-19T05:13:44.599Z,69.95
2024-01-19T05:16:31.895Z,70.26
2024-01-19T05:19:19.104Z,69.78
2024-01-19T05:22:06.494Z,69.73
2024-01-19T05:24:53.724Z,69.60
2024-01-19T05:27:40.866Z,69.40
2024-01-19T05:30:28.097Z,69.64
2024-01-19T05:33:16.069Z,69.40
2024-01-19T05:36:03.546Z,69.61
2024-01-19T05:38:51.006Z,69.69
2024-01-19T05:41:38.335Z,69.45
2024-01-19T05:44:25.653Z,69.56
2024-01-19T05:47:13.172Z,69.63
2024-01-19T05:50:01.603Z,69.16
2024-01-19T05:52:48.907Z,69.58
2024-01-19T05:55:36.239Z,70.06
2024-01-19T05:58:23.465Z,70.33
2024-01-19T06:01:11.259Z,70.96
2024-01-19T06:04:01.870Z,70.97
2024-01-19T06:06:49.286Z,70.99
2024-01-19T06:09:37.107Z,70.72
2024-01-19T06:12:24.339Z,70.18
2024-01-19T06:15:11.713Z,69.92
2024-01-19T06:17:59.102Z,70.02
2024-01-19T06:20:46.443Z,70.23
2024-01-19T06:23:33.774Z,70.14
2024-01-19T06:26:20.988Z,70.19
2024-01-19T06:29:08.216Z,70.04
2024-01-19T06:31:55.551Z,70.08
2024-01-19T06:34:43.764Z,69.91
2024-01-19T06:37:31.045Z,70.16
2024-01-19T06:40:19.216Z,70.05
2024-01-19T06:43:06.403Z,69.94
2024-01-19T06:45:53.609Z,69.12
2024-01-19T06:48:43.213Z,69.37
2024-01-19T06:51:31.623Z,68.91
2024-01-19T06:54:19.065Z,69.16
2024-01-19T06:57:06.622Z,68.92
2024-01-19T06:59:53.955Z,68.83
2024-01-19T07:02:41.167Z,68.93
2024-01-19T07:05:28.642Z,68.55
2024-01-19T07:08:17.466Z,68.82
2024-01-19T07:11:04.984Z,68.82
2024-01-19T07:13:52.270Z,68.79
2024-01-19T07:16:44.721Z,68.70
2024-01-19T07:19:32.174Z,69.00
2024-01-19T07:22:19.560Z,68.97
2024-01-19T07:25:07.496Z,69.15
2024-01-19T07:27:54.751Z,69.05
2024-01-19T07:30:42.065Z,69.33
2024-01-19T07:33:33.162Z,69.40
2024-01-19T07:36:20.999Z,69.63
2024-01-19T07:39:08.698Z,69.74
2024-01-19T07:41:56.029Z,69.71
2024-01-19T07:44:47.288Z,69.97
2024-01-19T07:47:36.911Z,69.90
2024-01-19T07:50:24.821Z,69.92
2024-01-19T07:53:12.215Z,69.83
2024-01-19T07:56:00.662Z,69.82
2024-01-19T07:58:47.899Z,70.01
2024-01-19T08:01:35.712Z,69.77
2024-01-19T08:04:22.951Z,69.89
2024-01-19T08:07:10.215Z,69.64
2024-01-19T08:09:57.448Z,69.57
2024-01-19T08:12:44.688Z,69.36
2024-01-19T08:15:31.911Z,69.62
2024-01-19T08:18:19.607Z,69.63
2024-01-19T08:21:07.258Z,69.79
2024-01-19T08:23:54.683Z,69.86
2024-01-19T08:26:42.050Z,69.99
2024-01-19T08:29:29.404Z,69.99
2024-01-19T08:32:17.095Z,70.16
2024-01-19T08:35:09.665Z,70.31
2024-01-19T08:37:59.469Z,70.23
2024-01-19T08:40:48.370Z,70.33
2024-01-19T08:43:35.792Z,70.78
2024-01-19T08:46:23.012Z,71.02
2024-01-19T08:49:10.709Z,71.21
2024-01-19T08:51:57.959Z,71.41
2024-01-19T08:54:45.258Z,71.24
2024-01-19T08:57:33.606Z,71.28
2024-01-19T09:00:21.562Z,71.10
2024-01-19T09:03:13.253Z,71.22
2024-01-19T09:06:00.456Z,71.24
2024-01-19T09:08:47.764Z,71.52
2024-01-19T09:11:35.498Z,71.53
2024-01-19T09:14:23.480Z,71.56
2024-01-19T09:17:13.346Z,71.35
2024-01-19T09:20:00.904Z,71.53
2024-01-19T09:22:48.244Z,71.08
2024-01-19T09:25:35.488Z,70.92
2024-01-19T09:28:23.115Z,70.58
2024-01-19T09:31:10.364Z,70.48
2024-01-19T09:33:57.924Z,70.42
2024-01-19T09:36:45.357Z,70.28
2024-01-19T09:39:32.783Z,70.62
2024-01-19T09:42:34.991Z,70.43
2024-01-19T09:45:27.651Z,70.50
2024-01-19T09:48:24.902Z,70.52
2024-01-19T09:51:13.013Z,70.47
2024-01-19T09:54:08.663Z,70.47
2024-01-19T09:56:56.003Z,70.46
2024-01-19T09:59:44.429Z,70.57
2024-01-19T10:02:34.007Z,70.62
2024-01-19T10:05:22.942Z,70.34
2024-01-19T10:08:15.135Z,69.02
2024-01-19T10:11:09.421Z,67.83
2024-01-19T10:13:56.689Z,67.49
2024-01-19T10:16:45.791Z,65.61
2024-01-19T10:19:35.105Z,63.80
2024-01-19T10:22:29.824Z,61.94
2024-01-19T10:25:17.183Z,61.88
2024-01-19T10:28:04.748Z,61.32
2024-01-19T10:30:51.907Z,61.10
2024-01-19T10:33:53.549Z,59.27
2024-01-19T10:36:41.518Z,59.47
2024-01-19T10:39:33.044Z,59.87
2024-01-19T10:42:21.268Z,60.29
2024-01-19T10:45:26.162Z,61.11
2024-01-19T10:48:28.037Z,59.86
2024-01-19T10:51:15.603Z,60.33
2024-01-19T10:54:04.021Z,59.73
2024-01-19T10:57:10.263Z,57.54
2024-01-19T10:59:57.597Z,57.44
2024-01-19T11:02:51.164Z,56.06
2024-01-19T11:05:38.477Z,56.12
2024-01-19T11:08:29.855Z,55.92
2024-01-19T11:11:19.965Z,52.94
2024-01-19T11:14:10.284Z,53.12
2024-01-19T11:16:58.050Z,52.24
2024-01-19T11:19:45.374Z,52.56
2024-01-19T11:22:33.541Z,52.85
2024-01-19T11:25:37.024Z,51.57
2024-01-19T11:28:47.325Z,51.84
2024-01-19T11:31:41.728Z,50.87
2024-01-19T11:34:53.531Z,50.10
2024-01-19T11:37:48.409Z,50.58
2024-01-19T11:40:37.043Z,51.02
2024-01-19T11:43:44.724Z,50.88
2024-01-19T11:46:53.076Z,49.64
2024-01-19T11:49:47.751Z,49.46
2024-01-19T11:52:43.843Z,48.51
2024-01-19T11:55:35.353Z,48.62
2024-01-19T11:58:30.689Z,48.99
2024-01-19T12:01:18.682Z,49.28
2024-01-19T12:04:06.204Z,50.04
2024-01-19T12:07:05.325Z,51.61
2024-01-19T12:10:16.652Z,51.52
2024-01-19T12:13:04.838Z,51.60
2024-01-19T12:15:54.188Z,51.77
2024-01-19T12:18:41.830Z,52.06
2024-01-19T12:21:29.354Z,52.53
2024-01-19T12:24:20.750Z,51.23
2024-01-19T12:27:07.916Z,50.14
2024-01-19T12:29:55.202Z,50.97
2024-01-19T12:32:47.240Z,50.11
2024-01-19T12:35:34.799Z,49.81
2024-01-19T12:38:24.746Z,49.12
2024-01-19T12:41:20.538Z,48.13
2024-01-19T12:44:08.166Z,48.55
2024-01-19T12:46:59.934Z,48.52
2024-01-19T12:49:53.731Z,48.34
2024-01-19T12:52:48.660Z,48.52
2024-01-19T12:55:36.083Z,48.48
2024-01-19T12:58:23.833Z,49.05
2024-01-19T13:01:11.886Z,48.01
2024-01-19T13:03:59.941Z,48.23
2024-01-19T13:06:47.660Z,47.52
2024-01-19T13:09:34.976Z,47.31
2024-01-19T13:12:22.628Z,46.93
2024-01-19T13:15:11.827Z,46.39
2024-01-19T13:18:23.544Z,45.83
2024-01-19T13:21:16.337Z,45.82
2024-01-19T13:24:04.014Z,45.36
2024-01-19T13:27:04.647Z,44.75
2024-01-19T13:29:51.901Z,44.10
2024-01-19T13:32:40.004Z,43.92
2024-01-19T13:35:28.040Z,43.83
2024-01-19T13:38:15.382Z,44.15
2024-01-19T13:41:02.938Z,43.28
2024-01-19T13:43:51.320Z,42.94
2024-01-19T13:46:39.261Z,42.95
2024-01-19T13:49:26.621Z,42.61
2024-01-19T13:52:13.962Z,43.05
2024-01-19T13:55:01.273Z,42.91
2024-01-19T13:57:48.606Z,41.82
2024-01-19T14:00:39.382Z,41.92
2024-01-19T14:03:26.836Z,41.92
2024-01-19T14:06:16.496Z,41.73
2024-01-19T14:09:04.397Z,41.54
2024-01-19T14:11:52.620Z,41.97
2024-01-19T14:14:41.575Z,41.72
2024-01-19T14:17:28.831Z,42.67
2024-01-19T14:20:17.344Z,42.24
2024-01-19T14:23:08.334Z,42.55
2024-01-19T14:25:55.596Z,42.80
2024-01-19T14:28:43.839Z,43.44
2024-01-19T14:31:33.478Z,44.33
2024-01-19T14:34:21.342Z,45.12
2024-01-19T14:37:19.249Z,45.22
2024-01-19T14:40:08.544Z,45.45
2024-01-19T14:43:00.892Z,46.09
2024-01-19T14:45:48.903Z,45.79
2024-01-19T14:48:37.868Z,46.19
2024-01-19T14:51:25.602Z,46.55
2024-01-19T14:54:16.384Z,46.80
2024-01-19T14:57:04.628Z,47.49
2024-01-19T14:59:51.847Z,47.86
2024-01-19T15:02:39.617Z,48.74
2024-01-19T15:05:27.021Z,49.30
2024-01-19T15:08:14.264Z,50.06
2024-01-19T15:11:02.291Z,50.88
2024-01-19T15:13:51.062Z,51.04
2024-01-19T15:16:42.656Z,51.69
2024-01-19T15:19:30.148Z,52.32
2024-01-19T15:22:17.822Z,52.58
2024-01-19T15:25:08.698Z,53.02
2024-01-19T15:27:57.214Z,53.62
2024-01-19T15:30:44.955Z,53.97
2024-01-19T15:33:32.482Z,54.39
2024-01-19T15:36:20.139Z,54.91
2024-01-19T15:39:08.085Z,55.16
2024-01-19T15:41:55.273Z,55.41
2024-01-19T15:44:43.613Z,55.96
2024-01-19T15:47:32.613Z,56.38
2024-01-19T15:50:22.385Z,56.83
2024-01-19T15:53:09.750Z,57.04
2024-01-19T15:55:59.340Z,57.49
2024-01-19T15:58:47.811Z,57.63
2024-01-19T16:01:41.256Z,57.97
2024-01-19T16:04:30.196Z,58.22
2024-01-19T16:07:18.334Z,58.64
2024-01-19T16:10:07.571Z,58.86
2024-01-19T16:12:55.711Z,58.92
2024-01-19T16:15:44.352Z,59.15
2024-01-19T16:18:35.081Z,59.41
2024-01-19T16:21:27.935Z,59.51
2024-01-19T16:24:18.489Z,59.58
2024-01-19T16:27:06.176Z,59.97
2024-01-19T16:29:54.561Z,59.99
2024-01-19T16:32:47.836Z,60.14
2024-01-19T16:35:42.054Z,60.45
2024-01-19T16:38:30.753Z,60.54
2024-01-19T16:41:20.896Z,60.97
2024-01-19T16:44:10.086Z,61.20
2024-01-19T16:46:57.982Z,61.01
2024-01-19T16:49:46.088Z,61.13
2024-01-19T16:52:33.304Z,61.84
2024-01-19T16:55:21.817Z,61.46
2024-01-19T16:58:10.884Z,61.66
2024-01-19T17:00:58.736Z,62.08
2024-01-19T17:03:48.586Z,62.12
2024-01-19T17:06:37.046Z,62.12
2024-01-19T17:09:27.413Z,62.28
2024-01-19T17:12:16.298Z,62.34
2024-01-19T17:15:03.650Z,62.71
2024-01-19T17:17:51.376Z,62.64
2024-01-19T17:20:41.817Z,62.81
2024-01-19T17:23:30.017Z,62.85
2024-01-19T17:26:17.407Z,62.66
2024-01-19T17:29:04.964Z,62.95
2024-01-19T17:31:52.531Z,62.77
2024-01-19T17:34:41.928Z,62.83
2024-01-19T17:37:30.226Z,63.00
2024-01-19T17:40:22.610Z,63.20
2024-01-19T17:43:11.923Z,63.25
2024-01-19T17:45:59.465Z,63.46
2024-01-19T17:48:46.815Z,63.64
2024-01-19T17:51:34.040Z,63.74
2024-01-19T17:54:22.838Z,64.07
2024-01-19T17:57:10.307Z,63.90
2024-01-19T17:59:57.508Z,63.89
2024-01-19T18:02:45.613Z,63.73
2024-01-19T18:05:33.055Z,63.79
2024-01-19T18:08:20.528Z,64.09
2024-01-19T18:11:07.923Z,63.91
2024-01-19T18:13:57.272Z,64.32
2024-01-19T18:16:45.020Z,64.05
2024-01-19T18:19:33.545Z,64.34
2024-01-19T18:22:21.390Z,64.39
2024-01-19T18:25:17.600Z,64.66
2024-01-19T18:28:07.230Z,64.67
2024-01-19T18:30:56.148Z,64.80
2024-01-19T18:33:45.103Z,64.86
2024-01-19T18:36:33.495Z,64.86
2024-01-19T18:39:20.848Z,65.22
2024-01-19T18:42:09.639Z,65.18
2024-01-19T18:44:58.075Z,65.32
2024-01-19T18:47:51.563Z,65.88
2024-01-19T18:50:38.913Z,65.42
2024-01-19T18:53:26.646Z,65.70
2024-01-19T18:56:28.687Z,66.18
2024-01-19T18:59:17.224Z,66.03
2024-01-19T19:02:06.570Z,66.39
2024-01-19T19:04:54.028Z,66.19
2024-01-19T19:07:41.385Z,66.18
2024-01-19T19:10:29.212Z,66.33
2024-01-19T19:13:17.621Z,66.30
2024-01-19T19:16:18.028Z,66.27
2024-01-19T19:19:09.951Z,67.00
2024-01-19T19:21:59.017Z,67.03
2024-01-19T19:24:46.353Z,67.11
2024-01-19T19:27:34.934Z,67.12
2024-01-19T19:30:25.568Z,66.76
2024-01-19T19:33:12.902Z,66.88
2024-01-19T19:36:03.854Z,67.28
2024-01-19T19:38:51.439Z,67.15
2024-01-19T19:41:39.331Z,67.38
2024-01-19T19:44:29.132Z,67.61
2024-01-19T19:47:19.091Z,67.71
2024-01-19T19:50:08.279Z,67.55
2024-01-19T19:52:55.614Z,67.83
2024-01-19T19:55:48.373Z,68.06
2024-01-19T19:58:41.855Z,68.14
2024-01-19T20:01:30.053Z,68.47
2024-01-19T20:04:17.428Z,68.92
2024-01-19T20:07:11.808Z,68.86
2024-01-19T20:09:59.424Z,68.73
2024-01-19T20:12:50.656Z,68.48
2024-01-19T20:15:38.421Z,68.26
2024-01-19T20:18:29.367Z,68.67
2024-01-19T20:21:26.788Z,68.50
2024-01-19T20:24:16.433Z,68.42
2024-01-19T20:27:04.949Z,68.43
2024-01-19T20:29:52.944Z,68.45
2024-01-19T20:32:47.102Z,68.61
2024-01-19T20:35:38.550Z,68.79
2024-01-19T20:38:26.471Z,68.75
2024-01-19T20:41:15.983Z,69.00
2024-01-19T20:44:04.658Z,69.24
2024-01-19T20:46:52.064Z,68.71
2024-01-19T20:49:40.833Z,68.95
2024-01-19T20:52:28.244Z,68.94
2024-01-19T20:55:25.055Z,69.28
2024-01-19T20:58:12.807Z,69.23
2024-01-19T21:01:05.259Z,69.18
2024-01-19T21:03:53.999Z,69.11
2024-01-19T21:06:41.608Z,69.16
2024-01-19T21:09:31.393Z,69.08
2024-01-19T21:12:21.165Z,69.18
2024-01-19T21:15:18.138Z,69.09
2024-01-19T21:18:08.973Z,69.06
2024-01-19T21:21:00.264Z,69.26
2024-01-19T21:23:48.896Z,69.32
2024-01-19T21:26:40.892Z,69.11
2024-01-19T21:29:30.036Z,69.11
2024-01-19T21:32:19.729Z,69.25
2024-01-19T21:35:17.753Z,69.35
2024-01-19T21:38:05.008Z,69.26
2024-01-19T21:40:53.809Z,69.33
2024-01-19T21:43:42.699Z,69.37
2024-01-19T21:46:31.027Z,69.50
2024-01-19T21:49:21.118Z,69.59
2024-01-19T21:52:09.947Z,69.41
2024-01-19T21:55:01.442Z,69.63
2024-01-19T21:57:48.701Z,69.70
2024-01-19T22:00:37.701Z,70.02
2024-01-19T22:03:26.921Z,69.71
2024-01-19T22:06:26.198Z,70.16
2024-01-19T22:09:15.606Z,70.12
2024-01-19T22:12:06.618Z,70.30
2024-01-19T22:14:58.567Z,70.08
2024-01-19T22:17:46.497Z,69.80
2024-01-19T22:20:34.839Z,70.09
2024-01-19T22:23:30.145Z,70.39
2024-01-19T22:26:17.417Z,70.56
2024-01-19T22:29:04.795Z,70.70
2024-01-19T22:31:54.933Z,70.64
2024-01-19T22:34:45.054Z,70.68
2024-01-19T22:37:35.964Z,70.87
2024-01-19T22:40:24.822Z,71.02
2024-01-19T22:43:18.054Z,71.12
2024-01-19T22:46:08.485Z,71.55
2024-01-19T22:48:56.748Z,71.76
2024-01-19T22:51:46.625Z,71.92
2024-01-19T22:54:35.067Z,72.07
2024-01-19T22:57:25.499Z,72.15
2024-01-19T23:00:16.385Z,72.01
2024-01-19T23:03:04.196Z,72.14
2024-01-19T23:05:51.968Z,71.96
2024-01-19T23:08:39.414Z,72.23
2024-01-19T23:11:29.152Z,72.14
2024-01-19T23:14:18.073Z,71.82
2024-01-19T23:17:06.455Z,71.60
2024-01-19T23:19:55.019Z,71.33
2024-01-19T23:22:42.651Z,71.59
2024-01-19T23:25:37.379Z,71.66
2024-01-19T23:28:25.379Z,71.58
2024-01-19T23:31:13.748Z,71.36
2024-01-19T23:34:01.078Z,71.25
2024-01-19T23:36:49.574Z,71.12
2024-01-19T23:39:39.306Z,71.03
2024-01-19T23:42:26.957Z,71.00
2024-01-19T23:45:14.540Z,71.16
2024-01-19T23:48:06.974Z,71.34
2024-01-19T23:50:54.357Z,71.50
2024-01-19T23:53:41.816Z,71.55
2024-01-19T23:56:34.778Z,71.75
2024-01-19T23:59:21.999Z,71.97
